sensor_id;sensor_type;location;lat;lon;timestamp;temperature;humidity
69776;DHT22;57049;51.450;-2.516;2022-10-31T00:01:13;13.02;97.88
69776;DHT22;57049;51.450;-2.516;2022-10-31T00:03:39;13.07;97.55
69776;DHT22;57049;51.450;-2.516;2022-10-31T00:06:04;13.04;97.81
69776;DHT22;57049;51.450;-2.516;2022-10-31T00:08:30;13.13;97.38
69776;DHT22;57049;51.450;-2.516;2022-10-31T00:10:56;13.16;97.37
69776;DHT22;57049;51.450;-2.516;2022-10-31T00:13:21;13.14;97.31
69776;DHT22;57049;51.450;-2.516;2022-10-31T00:15:47;13.16;97.14
69776;DHT22;57049;51.450;-2.516;2022-10-31T00:18:12;13.07;97.61
69776;DHT22;57049;51.450;-2.516;2022-10-31T00:20:38;13.06;97.46
69776;DHT22;57049;51.450;-2.516;2022-10-31T00:23:05;13.17;97.14
69776;DHT22;57049;51.450;-2.516;2022-10-31T00:25:36;13.07;97.38
69776;DHT22;57049;51.450;-2.516;2022-10-31T00:28:03;12.99;97.76
69776;DHT22;57049;51.450;-2.516;2022-10-31T00:30:29;12.95;97.89
69776;DHT22;57049;51.450;-2.516;2022-10-31T00:32:55;12.88;97.99
69776;DHT22;57049;51.450;-2.516;2022-10-31T00:35:20;12.86;98.02
69776;DHT22;57049;51.450;-2.516;2022-10-31T00:37:46;12.75;98.41
69776;DHT22;57049;51.450;-2.516;2022-10-31T00:40:12;12.69;98.75
69776;DHT22;57049;51.450;-2.516;2022-10-31T00:42:39;12.66;98.80
69776;DHT22;57049;51.450;-2.516;2022-10-31T00:45:10;12.62;98.95
69776;DHT22;57049;51.450;-2.516;2022-10-31T00:47:37;12.55;99.20
69776;DHT22;57049;51.450;-2.516;2022-10-31T00:50:04;12.49;99.37
69776;DHT22;57049;51.450;-2.516;2022-10-31T00:52:30;12.46;99.61
69776;DHT22;57049;51.450;-2.516;2022-10-31T00:54:56;12.38;99.59
69776;DHT22;57049;51.450;-2.516;2022-10-31T00:57:21;12.41;99.80
69776;DHT22;57049;51.450;-2.516;2022-10-31T00:59:48;12.39;99.87
69776;DHT22;57049;51.450;-2.516;2022-10-31T01:02:13;12.48;99.67
69776;DHT22;57049;51.450;-2.516;2022-10-31T01:04:39;12.41;99.66
69776;DHT22;57049;51.450;-2.516;2022-10-31T01:07:04;12.41;99.81
69776;DHT22;57049;51.450;-2.516;2022-10-31T01:09:30;12.41;99.74
69776;DHT22;57049;51.450;-2.516;2022-10-31T01:11:55;12.31;99.89
69776;DHT22;57049;51.450;-2.516;2022-10-31T01:14:21;12.35;99.99
69776;DHT22;57049;51.450;-2.516;2022-10-31T01:16:46;12.22;99.99
69776;DHT22;57049;51.450;-2.516;2022-10-31T01:19:12;12.25;99.99
69776;DHT22;57049;51.450;-2.516;2022-10-31T01:21:37;12.29;99.99
69776;DHT22;57049;51.450;-2.516;2022-10-31T01:24:03;12.37;99.99
69776;DHT22;57049;51.450;-2.516;2022-10-31T01:26:31;12.34;99.99
69776;DHT22;57049;51.450;-2.516;2022-10-31T01:28:58;12.37;99.99
69776;DHT22;57049;51.450;-2.516;2022-10-31T01:31:27;12.34;99.81
69776;DHT22;57049;51.450;-2.516;2022-10-31T01:33:54;12.29;99.85
69776;DHT22;57049;51.450;-2.516;2022-10-31T01:36:23;12.25;99.85
69776;DHT22;57049;51.450;-2.516;2022-10-31T01:38:49;12.25;99.99
69776;DHT22;57049;51.450;-2.516;2022-10-31T01:41:18;12.14;99.94
69776;DHT22;57049;51.450;-2.516;2022-10-31T01:43:55;12.31;99.93
69776;DHT22;57049;51.450;-2.516;2022-10-31T01:48:50;12.35;99.82
69776;DHT22;57049;51.450;-2.516;2022-10-31T01:51:17;12.42;99.70
69776;DHT22;57049;51.450;-2.516;2022-10-31T01:53:44;12.39;99.74
69776;DHT22;57049;51.450;-2.516;2022-10-31T01:56:12;12.34;99.76
69776;DHT22;57049;51.450;-2.516;2022-10-31T01:58:39;12.28;99.97
69776;DHT22;57049;51.450;-2.516;2022-10-31T02:01:05;12.29;99.99
69776;DHT22;57049;51.450;-2.516;2022-10-31T02:03:31;12.24;99.99
69776;DHT22;57049;51.450;-2.516;2022-10-31T02:05:57;12.34;99.99
69776;DHT22;57049;51.450;-2.516;2022-10-31T02:08:27;12.41;99.90
69776;DHT22;57049;51.450;-2.516;2022-10-31T02:10:53;12.52;99.65
69776;DHT22;57049;51.450;-2.516;2022-10-31T02:13:19;12.52;99.57
69776;DHT22;57049;51.450;-2.516;2022-10-31T02:15:49;12.53;99.59
69776;DHT22;57049;51.450;-2.516;2022-10-31T02:18:15;12.50;99.45
69776;DHT22;57049;51.450;-2.516;2022-10-31T02:21:08;12.49;99.51
69776;DHT22;57049;51.450;-2.516;2022-10-31T02:30:18;12.60;99.32
69776;DHT22;57049;51.450;-2.516;2022-10-31T02:33:00;12.44;99.52
69776;DHT22;57049;51.450;-2.516;2022-10-31T02:38:25;12.55;99.70
69776;DHT22;57049;51.450;-2.516;2022-10-31T02:46:34;12.58;99.54
69776;DHT22;57049;51.450;-2.516;2022-10-31T02:49:12;12.53;99.80
69776;DHT22;57049;51.450;-2.516;2022-10-31T02:51:39;12.53;99.80
69776;DHT22;57049;51.450;-2.516;2022-10-31T02:54:14;12.50;99.92
69776;DHT22;57049;51.450;-2.516;2022-10-31T02:56:40;12.44;99.99
69776;DHT22;57049;51.450;-2.516;2022-10-31T02:59:06;12.35;99.99
69776;DHT22;57049;51.450;-2.516;2022-10-31T03:02:09;12.32;99.99
69776;DHT22;57049;51.450;-2.516;2022-10-31T03:04:31;12.44;99.99
69776;DHT22;57049;51.450;-2.516;2022-10-31T03:14:43;12.29;99.99
69776;DHT22;57049;51.450;-2.516;2022-10-31T03:17:22;12.34;99.99
69776;DHT22;57049;51.450;-2.516;2022-10-31T03:19:52;12.44;99.99
69776;DHT22;57049;51.450;-2.516;2022-10-31T03:22:22;12.35;99.99
69776;DHT22;57049;51.450;-2.516;2022-10-31T03:24:49;12.44;99.99
69776;DHT22;57049;51.450;-2.516;2022-10-31T03:27:18;12.52;99.99
69776;DHT22;57049;51.450;-2.516;2022-10-31T03:29:47;12.46;99.99
69776;DHT22;57049;51.450;-2.516;2022-10-31T03:32:21;12.44;99.99
69776;DHT22;57049;51.450;-2.516;2022-10-31T03:34:49;12.35;99.99
69776;DHT22;57049;51.450;-2.516;2022-10-31T03:37:18;12.28;99.99
69776;DHT22;57049;51.450;-2.516;2022-10-31T03:39:46;12.29;99.99
69776;DHT22;57049;51.450;-2.516;2022-10-31T03:42:23;12.20;99.99
69776;DHT22;57049;51.450;-2.516;2022-10-31T03:47:34;12.34;99.99
69776;DHT22;57049;51.450;-2.516;2022-10-31T03:50:01;12.28;99.99
69776;DHT22;57049;51.450;-2.516;2022-10-31T03:57:54;12.18;99.99
69776;DHT22;57049;51.450;-2.516;2022-10-31T04:00:22;12.22;99.99
69776;DHT22;57049;51.450;-2.516;2022-10-31T04:03:03;12.20;99.99
69776;DHT22;57049;51.450;-2.516;2022-10-31T04:05:30;12.22;99.99
69776;DHT22;57049;51.450;-2.516;2022-10-31T04:07:57;12.34;99.99
69776;DHT22;57049;51.450;-2.516;2022-10-31T04:10:25;12.35;99.99
69776;DHT22;57049;51.450;-2.516;2022-10-31T04:12:56;12.32;99.99
69776;DHT22;57049;51.450;-2.516;2022-10-31T04:15:23;12.29;99.99
69776;DHT22;57049;51.450;-2.516;2022-10-31T04:17:50;12.24;99.99
69776;DHT22;57049;51.450;-2.516;2022-10-31T04:20:18;12.20;99.99
69776;DHT22;57049;51.450;-2.516;2022-10-31T04:22:43;12.21;99.99
69776;DHT22;57049;51.450;-2.516;2022-10-31T04:25:09;12.20;99.99
69776;DHT22;57049;51.450;-2.516;2022-10-31T04:27:34;12.22;99.99
69776;DHT22;57049;51.450;-2.516;2022-10-31T04:29:59;12.28;99.99
69776;DHT22;57049;51.450;-2.516;2022-10-31T04:32:25;12.27;99.99
69776;DHT22;57049;51.450;-2.516;2022-10-31T04:34:51;12.38;99.99
69776;DHT22;57049;51.450;-2.516;2022-10-31T04:37:16;12.37;99.99
69776;DHT22;57049;51.450;-2.516;2022-10-31T04:39:42;12.38;99.99
69776;DHT22;57049;51.450;-2.516;2022-10-31T04:42:07;12.38;99.99
69776;DHT22;57049;51.450;-2.516;2022-10-31T04:44:32;12.39;99.99
69776;DHT22;57049;51.450;-2.516;2022-10-31T04:46:58;12.45;99.99
69776;DHT22;57049;51.450;-2.516;2022-10-31T04:49:23;12.48;99.99
69776;DHT22;57049;51.450;-2.516;2022-10-31T04:51:49;12.45;99.99
69776;DHT22;57049;51.450;-2.516;2022-10-31T04:54:14;12.55;99.99
69776;DHT22;57049;51.450;-2.516;2022-10-31T04:56:39;12.39;99.99
69776;DHT22;57049;51.450;-2.516;2022-10-31T04:59:05;12.31;99.99
69776;DHT22;57049;51.450;-2.516;2022-10-31T05:01:30;12.28;99.99
69776;DHT22;57049;51.450;-2.516;2022-10-31T05:03:56;12.27;99.99
69776;DHT22;57049;51.450;-2.516;2022-10-31T05:06:21;12.31;99.99
69776;DHT22;57049;51.450;-2.516;2022-10-31T05:08:46;12.28;99.99
69776;DHT22;57049;51.450;-2.516;2022-10-31T05:11:12;12.35;99.99
69776;DHT22;57049;51.450;-2.516;2022-10-31T05:13:38;12.28;99.99
69776;DHT22;57049;51.450;-2.516;2022-10-31T05:16:03;12.24;99.99
69776;DHT22;57049;51.450;-2.516;2022-10-31T05:18:29;12.21;99.99
69776;DHT22;57049;51.450;-2.516;2022-10-31T05:20:54;12.21;99.99
69776;DHT22;57049;51.450;-2.516;2022-10-31T05:23:20;12.17;99.99
69776;DHT22;57049;51.450;-2.516;2022-10-31T05:25:45;12.10;99.99
69776;DHT22;57049;51.450;-2.516;2022-10-31T05:28:10;12.05;99.99
69776;DHT22;57049;51.450;-2.516;2022-10-31T05:30:36;12.02;99.99
69776;DHT22;57049;51.450;-2.516;2022-10-31T05:33:02;11.88;99.99
69776;DHT22;57049;51.450;-2.516;2022-10-31T05:35:29;11.80;99.99
69776;DHT22;57049;51.450;-2.516;2022-10-31T05:37:55;11.84;99.99
69776;DHT22;57049;51.450;-2.516;2022-10-31T05:40:23;11.84;99.99
69776;DHT22;57049;51.450;-2.516;2022-10-31T05:42:51;11.98;99.99
69776;DHT22;57049;51.450;-2.516;2022-10-31T05:45:17;11.97;99.99
69776;DHT22;57049;51.450;-2.516;2022-10-31T05:48:03;11.94;99.99
69776;DHT22;57049;51.450;-2.516;2022-10-31T05:50:30;11.97;99.99
69776;DHT22;57049;51.450;-2.516;2022-10-31T05:53:03;11.93;99.99
69776;DHT22;57049;51.450;-2.516;2022-10-31T05:55:30;12.05;99.99
69776;DHT22;57049;51.450;-2.516;2022-10-31T05:57:56;12.05;99.99
69776;DHT22;57049;51.450;-2.516;2022-10-31T06:00:22;12.02;99.99
69776;DHT22;57049;51.450;-2.516;2022-10-31T06:02:48;11.99;99.99
69776;DHT22;57049;51.450;-2.516;2022-10-31T06:05:14;11.99;99.99
69776;DHT22;57049;51.450;-2.516;2022-10-31T06:07:39;12.01;99.99
69776;DHT22;57049;51.450;-2.516;2022-10-31T06:10:06;12.01;99.99
69776;DHT22;57049;51.450;-2.516;2022-10-31T06:12:32;11.98;99.99
69776;DHT22;57049;51.450;-2.516;2022-10-31T06:15:04;12.01;99.99
69776;DHT22;57049;51.450;-2.516;2022-10-31T06:17:29;12.10;99.99
69776;DHT22;57049;51.450;-2.516;2022-10-31T06:19:55;11.98;99.99
69776;DHT22;57049;51.450;-2.516;2022-10-31T06:22:20;11.91;99.99
69776;DHT22;57049;51.450;-2.516;2022-10-31T06:24:46;12.14;99.99
69776;DHT22;57049;51.450;-2.516;2022-10-31T06:27:11;12.17;99.99
69776;DHT22;57049;51.450;-2.516;2022-10-31T06:29:36;12.13;99.99
69776;DHT22;57049;51.450;-2.516;2022-10-31T06:32:02;12.21;99.99
69776;DHT22;57049;51.450;-2.516;2022-10-31T06:34:27;12.13;99.99
69776;DHT22;57049;51.450;-2.516;2022-10-31T06:36:53;12.08;99.99
69776;DHT22;57049;51.450;-2.516;2022-10-31T06:39:18;12.21;99.99
69776;DHT22;57049;51.450;-2.516;2022-10-31T06:41:43;12.22;99.99
69776;DHT22;57049;51.450;-2.516;2022-10-31T06:44:09;12.18;99.99
69776;DHT22;57049;51.450;-2.516;2022-10-31T06:46:34;12.14;99.99
69776;DHT22;57049;51.450;-2.516;2022-10-31T06:49:00;12.15;99.99
69776;DHT22;57049;51.450;-2.516;2022-10-31T06:51:25;12.24;99.99
69776;DHT22;57049;51.450;-2.516;2022-10-31T06:53:51;12.14;99.99
69776;DHT22;57049;51.450;-2.516;2022-10-31T06:56:16;12.27;99.99
69776;DHT22;57049;51.450;-2.516;2022-10-31T06:58:42;12.38;99.99
69776;DHT22;57049;51.450;-2.516;2022-10-31T07:01:07;12.42;99.99
69776;DHT22;57049;51.450;-2.516;2022-10-31T07:03:33;12.44;99.99
69776;DHT22;57049;51.450;-2.516;2022-10-31T07:05:58;12.45;99.99
69776;DHT22;57049;51.450;-2.516;2022-10-31T07:08:24;12.42;99.99
69776;DHT22;57049;51.450;-2.516;2022-10-31T07:10:55;12.46;99.99
69776;DHT22;57049;51.450;-2.516;2022-10-31T07:13:21;12.53;99.99
69776;DHT22;57049;51.450;-2.516;2022-10-31T07:15:52;12.52;99.99
69776;DHT22;57049;51.450;-2.516;2022-10-31T07:18:17;12.44;99.99
69776;DHT22;57049;51.450;-2.516;2022-10-31T07:20:43;12.38;99.99
69776;DHT22;57049;51.450;-2.516;2022-10-31T07:23:10;12.50;99.99
69776;DHT22;57049;51.450;-2.516;2022-10-31T07:25:37;12.35;99.99
69776;DHT22;57049;51.450;-2.516;2022-10-31T07:28:02;12.32;99.99
69776;DHT22;57049;51.450;-2.516;2022-10-31T07:30:28;12.24;99.99
69776;DHT22;57049;51.450;-2.516;2022-10-31T07:32:53;12.24;99.99
69776;DHT22;57049;51.450;-2.516;2022-10-31T07:35:24;12.29;99.99
69776;DHT22;57049;51.450;-2.516;2022-10-31T07:37:50;12.31;99.99
69776;DHT22;57049;51.450;-2.516;2022-10-31T07:40:16;12.35;99.99
69776;DHT22;57049;51.450;-2.516;2022-10-31T07:42:43;12.49;99.99
69776;DHT22;57049;51.450;-2.516;2022-10-31T07:45:11;12.50;99.99
69776;DHT22;57049;51.450;-2.516;2022-10-31T07:47:40;12.46;99.99
69776;DHT22;57049;51.450;-2.516;2022-10-31T07:50:07;12.50;99.99
69776;DHT22;57049;51.450;-2.516;2022-10-31T07:52:32;12.59;99.99
69776;DHT22;57049;51.450;-2.516;2022-10-31T07:54:58;12.62;99.99
69776;DHT22;57049;51.450;-2.516;2022-10-31T07:57:23;12.86;99.45
69776;DHT22;57049;51.450;-2.516;2022-10-31T07:59:49;12.89;99.35
69776;DHT22;57049;51.450;-2.516;2022-10-31T08:02:14;12.96;99.22
69776;DHT22;57049;51.450;-2.516;2022-10-31T08:04:40;13.04;98.83
69776;DHT22;57049;51.450;-2.516;2022-10-31T08:07:05;13.17;98.55
69776;DHT22;57049;51.450;-2.516;2022-10-31T08:09:31;13.17;98.44
69776;DHT22;57049;51.450;-2.516;2022-10-31T08:11:56;13.26;98.10
69776;DHT22;57049;51.450;-2.516;2022-10-31T08:14:21;13.39;97.51
69776;DHT22;57049;51.450;-2.516;2022-10-31T08:16:47;13.36;97.71
69776;DHT22;57049;51.450;-2.516;2022-10-31T08:19:13;13.40;97.43
69776;DHT22;57049;51.450;-2.516;2022-10-31T08:21:38;13.31;97.81
69776;DHT22;57049;51.450;-2.516;2022-10-31T08:24:04;13.43;97.49
69776;DHT22;57049;51.450;-2.516;2022-10-31T08:26:30;13.47;97.42
69776;DHT22;57049;51.450;-2.516;2022-10-31T08:28:56;13.43;97.33
69776;DHT22;57049;51.450;-2.516;2022-10-31T08:31:21;13.47;97.25
69776;DHT22;57049;51.450;-2.516;2022-10-31T08:33:48;13.50;97.12
69776;DHT22;57049;51.450;-2.516;2022-10-31T08:36:14;13.47;97.15
69776;DHT22;57049;51.450;-2.516;2022-10-31T08:38:39;13.50;96.72
69776;DHT22;57049;51.450;-2.516;2022-10-31T08:41:04;13.50;96.77
69776;DHT22;57049;51.450;-2.516;2022-10-31T08:43:30;13.54;96.46
69776;DHT22;57049;51.450;-2.516;2022-10-31T08:45:55;13.58;96.20
69776;DHT22;57049;51.450;-2.516;2022-10-31T08:48:21;13.61;96.35
69776;DHT22;57049;51.450;-2.516;2022-10-31T08:50:46;13.67;95.69
69776;DHT22;57049;51.450;-2.516;2022-10-31T08:53:17;13.74;95.71
69776;DHT22;57049;51.450;-2.516;2022-10-31T08:55:44;13.75;95.26
69776;DHT22;57049;51.450;-2.516;2022-10-31T08:58:15;13.75;95.42
69776;DHT22;57049;51.450;-2.516;2022-10-31T09:00:41;13.74;95.58
69776;DHT22;57049;51.450;-2.516;2022-10-31T09:03:12;13.75;95.25
69776;DHT22;57049;51.450;-2.516;2022-10-31T09:05:38;13.74;95.38
69776;DHT22;57049;51.450;-2.516;2022-10-31T09:08:05;13.68;95.64
69776;DHT22;57049;51.450;-2.516;2022-10-31T09:10:33;13.70;95.63
69776;DHT22;57049;51.450;-2.516;2022-10-31T09:13:01;13.58;96.40
69776;DHT22;57049;51.450;-2.516;2022-10-31T09:15:27;13.64;96.43
69776;DHT22;57049;51.450;-2.516;2022-10-31T09:17:53;13.74;95.41
69776;DHT22;57049;51.450;-2.516;2022-10-31T09:20:19;13.72;95.68
69776;DHT22;57049;51.450;-2.516;2022-10-31T09:22:45;13.78;95.39
69776;DHT22;57049;51.450;-2.516;2022-10-31T09:25:11;13.75;95.80
69776;DHT22;57049;51.450;-2.516;2022-10-31T09:27:36;13.75;95.89
69776;DHT22;57049;51.450;-2.516;2022-10-31T09:30:03;13.71;95.94
69776;DHT22;57049;51.450;-2.516;2022-10-31T09:32:29;13.74;95.85
69776;DHT22;57049;51.450;-2.516;2022-10-31T09:34:54;13.79;95.48
69776;DHT22;57049;51.450;-2.516;2022-10-31T09:37:20;13.78;95.47
69776;DHT22;57049;51.450;-2.516;2022-10-31T09:39:45;13.79;95.80
69776;DHT22;57049;51.450;-2.516;2022-10-31T09:45:10;13.85;95.51
69776;DHT22;57049;51.450;-2.516;2022-10-31T09:51:08;14.05;94.53
69776;DHT22;57049;51.450;-2.516;2022-10-31T09:53:40;14.11;94.61
69776;DHT22;57049;51.450;-2.516;2022-10-31T09:56:14;14.16;94.68
69776;DHT22;57049;51.450;-2.516;2022-10-31T09:58:43;14.21;94.34
69776;DHT22;57049;51.450;-2.516;2022-10-31T10:01:23;14.29;94.43
69776;DHT22;57049;51.450;-2.516;2022-10-31T10:03:55;14.33;93.94
69776;DHT22;57049;51.450;-2.516;2022-10-31T10:06:25;14.46;94.05
69776;DHT22;57049;51.450;-2.516;2022-10-31T10:08:51;14.56;93.48
69776;DHT22;57049;51.450;-2.516;2022-10-31T10:11:37;14.67;93.05
69776;DHT22;57049;51.450;-2.516;2022-10-31T10:20:02;14.83;91.55
69776;DHT22;57049;51.450;-2.516;2022-10-31T10:23:06;14.79;91.65
69776;DHT22;57049;51.450;-2.516;2022-10-31T10:25:38;14.85;91.66
69776;DHT22;57049;51.450;-2.516;2022-10-31T10:28:19;14.81;91.58
69776;DHT22;57049;51.450;-2.516;2022-10-31T10:31:05;14.85;90.97
69776;DHT22;57049;51.450;-2.516;2022-10-31T10:33:35;14.93;90.73
69776;DHT22;57049;51.450;-2.516;2022-10-31T10:39:04;14.93;90.66
69776;DHT22;57049;51.450;-2.516;2022-10-31T10:41:32;14.95;90.45
69776;DHT22;57049;51.450;-2.516;2022-10-31T10:43:57;14.91;90.30
69776;DHT22;57049;51.450;-2.516;2022-10-31T10:51:46;14.76;90.04
69776;DHT22;57049;51.450;-2.516;2022-10-31T10:54:37;14.83;89.35
69776;DHT22;57049;51.450;-2.516;2022-10-31T10:57:20;14.87;89.57
69776;DHT22;57049;51.450;-2.516;2022-10-31T10:59:47;14.93;90.34
69776;DHT22;57049;51.450;-2.516;2022-10-31T11:02:32;14.95;89.54
69776;DHT22;57049;51.450;-2.516;2022-10-31T11:04:59;15.08;89.28
69776;DHT22;57049;51.450;-2.516;2022-10-31T11:07:26;15.11;88.82
69776;DHT22;57049;51.450;-2.516;2022-10-31T11:10:06;15.14;88.94
69776;DHT22;57049;51.450;-2.516;2022-10-31T11:12:38;15.15;88.56
69776;DHT22;57049;51.450;-2.516;2022-10-31T11:15:23;15.10;88.88
69776;DHT22;57049;51.450;-2.516;2022-10-31T11:17:51;15.08;88.87
69776;DHT22;57049;51.450;-2.516;2022-10-31T11:20:26;15.08;88.68
69776;DHT22;57049;51.450;-2.516;2022-10-31T11:23:04;15.07;89.03
69776;DHT22;57049;51.450;-2.516;2022-10-31T11:25:31;15.15;88.12
69776;DHT22;57049;51.450;-2.516;2022-10-31T11:28:05;15.17;87.36
69776;DHT22;57049;51.450;-2.516;2022-10-31T11:30:43;15.30;87.75
69776;DHT22;57049;51.450;-2.516;2022-10-31T11:33:18;15.32;88.03
69776;DHT22;57049;51.450;-2.516;2022-10-31T11:35:44;15.38;85.81
69776;DHT22;57049;51.450;-2.516;2022-10-31T11:38:15;15.38;85.29
69776;DHT22;57049;51.450;-2.516;2022-10-31T11:40:56;15.31;85.63
69776;DHT22;57049;51.450;-2.516;2022-10-31T11:43:22;15.27;86.16
69776;DHT22;57049;51.450;-2.516;2022-10-31T11:45:48;15.25;86.61
69776;DHT22;57049;51.450;-2.516;2022-10-31T11:50:42;15.30;87.01
69776;DHT22;57049;51.450;-2.516;2022-10-31T11:53:28;15.32;85.96
69776;DHT22;57049;51.450;-2.516;2022-10-31T11:56:13;15.41;85.24
69776;DHT22;57049;51.450;-2.516;2022-10-31T11:58:39;15.39;84.04
69776;DHT22;57049;51.450;-2.516;2022-10-31T12:01:05;15.49;84.38
69776;DHT22;57049;51.450;-2.516;2022-10-31T12:03:38;15.54;84.15
69776;DHT22;57049;51.450;-2.516;2022-10-31T12:06:16;15.55;84.02
69776;DHT22;57049;51.450;-2.516;2022-10-31T12:08:44;15.59;84.19
69776;DHT22;57049;51.450;-2.516;2022-10-31T12:11:40;15.67;84.11
69776;DHT22;57049;51.450;-2.516;2022-10-31T12:14:33;15.75;84.17
69776;DHT22;57049;51.450;-2.516;2022-10-31T12:17:16;15.81;83.65
69776;DHT22;57049;51.450;-2.516;2022-10-31T12:22:58;15.89;83.51
69776;DHT22;57049;51.450;-2.516;2022-10-31T12:36:16;16.81;79.52
69776;DHT22;57049;51.450;-2.516;2022-10-31T12:39:02;16.87;79.89
69776;DHT22;57049;51.450;-2.516;2022-10-31T12:41:51;16.82;79.13
69776;DHT22;57049;51.450;-2.516;2022-10-31T12:46:52;16.60;78.93
69776;DHT22;57049;51.450;-2.516;2022-10-31T12:53:02;16.48;77.92
69776;DHT22;57049;51.450;-2.516;2022-10-31T13:01:09;16.31;77.98
69776;DHT22;57049;51.450;-2.516;2022-10-31T13:06:44;16.88;75.32
69776;DHT22;57049;51.450;-2.516;2022-10-31T13:09:24;17.40;75.34
69776;DHT22;57049;51.450;-2.516;2022-10-31T13:11:58;16.95;74.81
69776;DHT22;57049;51.450;-2.516;2022-10-31T13:14:37;16.47;75.57
69776;DHT22;57049;51.450;-2.516;2022-10-31T13:17:05;16.27;75.59
69776;DHT22;57049;51.450;-2.516;2022-10-31T13:19:36;16.13;76.26
69776;DHT22;57049;51.450;-2.516;2022-10-31T13:22:14;15.96;76.93
69776;DHT22;57049;51.450;-2.516;2022-10-31T13:27:51;15.89;78.45
69776;DHT22;57049;51.450;-2.516;2022-10-31T13:30:20;15.89;78.14
69776;DHT22;57049;51.450;-2.516;2022-10-31T13:33:47;15.97;78.81
69776;DHT22;57049;51.450;-2.516;2022-10-31T13:36:14;16.16;77.62
69776;DHT22;57049;51.450;-2.516;2022-10-31T13:39:02;16.24;77.31
69776;DHT22;57049;51.450;-2.516;2022-10-31T13:41:48;16.41;77.01
69776;DHT22;57049;51.450;-2.516;2022-10-31T13:46:41;16.44;77.42
69776;DHT22;57049;51.450;-2.516;2022-10-31T13:57:07;16.33;77.18
69776;DHT22;57049;51.450;-2.516;2022-10-31T13:59:38;16.24;77.99
69776;DHT22;57049;51.450;-2.516;2022-10-31T14:02:14;16.23;77.38
69776;DHT22;57049;51.450;-2.516;2022-10-31T14:04:51;16.27;77.29
69776;DHT22;57049;51.450;-2.516;2022-10-31T14:07:21;16.27;77.58
69776;DHT22;57049;51.450;-2.516;2022-10-31T14:12:26;16.30;77.98
69776;DHT22;57049;51.450;-2.516;2022-10-31T14:14:56;16.28;78.92
69776;DHT22;57049;51.450;-2.516;2022-10-31T14:17:25;16.31;78.23
69776;DHT22;57049;51.450;-2.516;2022-10-31T14:22:37;16.23;77.50
69776;DHT22;57049;51.450;-2.516;2022-10-31T14:25:30;16.17;77.12
69776;DHT22;57049;51.450;-2.516;2022-10-31T14:27:56;16.13;77.48
69776;DHT22;57049;51.450;-2.516;2022-10-31T14:30:24;16.07;77.38
69776;DHT22;57049;51.450;-2.516;2022-10-31T14:33:02;16.03;77.58
69776;DHT22;57049;51.450;-2.516;2022-10-31T14:36:37;15.97;78.21
69776;DHT22;57049;51.450;-2.516;2022-10-31T14:47:00;15.73;79.70
69776;DHT22;57049;51.450;-2.516;2022-10-31T14:52:05;15.63;81.15
69776;DHT22;57049;51.450;-2.516;2022-10-31T14:54:34;15.63;82.30
69776;DHT22;57049;51.450;-2.516;2022-10-31T14:57:06;15.55;82.84
69776;DHT22;57049;51.450;-2.516;2022-10-31T14:59:35;15.49;82.33
69776;DHT22;57049;51.450;-2.516;2022-10-31T15:02:21;15.45;83.47
69776;DHT22;57049;51.450;-2.516;2022-10-31T15:04:48;15.36;84.62
69776;DHT22;57049;51.450;-2.516;2022-10-31T15:07:19;15.18;85.93
69776;DHT22;57049;51.450;-2.516;2022-10-31T15:09:55;15.07;87.69
69776;DHT22;57049;51.450;-2.516;2022-10-31T15:12:24;15.04;87.03
69776;DHT22;57049;51.450;-2.516;2022-10-31T15:14:50;14.98;87.64
69776;DHT22;57049;51.450;-2.516;2022-10-31T15:17:15;14.91;88.50
69776;DHT22;57049;51.450;-2.516;2022-10-31T15:19:42;14.85;88.79
69776;DHT22;57049;51.450;-2.516;2022-10-31T15:22:14;14.79;89.29
69776;DHT22;57049;51.450;-2.516;2022-10-31T15:24:42;14.72;88.85
69776;DHT22;57049;51.450;-2.516;2022-10-31T15:27:16;14.62;90.06
69776;DHT22;57049;51.450;-2.516;2022-10-31T15:29:53;14.40;92.10
69776;DHT22;57049;51.450;-2.516;2022-10-31T15:32:24;14.28;92.99
69776;DHT22;57049;51.450;-2.516;2022-10-31T15:34:51;14.21;93.59
69776;DHT22;57049;51.450;-2.516;2022-10-31T15:37:19;14.11;94.57
69776;DHT22;57049;51.450;-2.516;2022-10-31T15:39:46;14.01;95.22
69776;DHT22;57049;51.450;-2.516;2022-10-31T15:42:33;13.97;96.02
69776;DHT22;57049;51.450;-2.516;2022-10-31T15:47:31;13.88;96.40
69776;DHT22;57049;51.450;-2.516;2022-10-31T15:49:59;13.85;96.58
69776;DHT22;57049;51.450;-2.516;2022-10-31T15:52:37;13.83;97.07
69776;DHT22;57049;51.450;-2.516;2022-10-31T15:55:18;13.79;97.09
69776;DHT22;57049;51.450;-2.516;2022-10-31T15:57:50;13.75;97.30
69776;DHT22;57049;51.450;-2.516;2022-10-31T16:02:47;13.82;96.59
69776;DHT22;57049;51.450;-2.516;2022-10-31T16:05:19;13.83;97.01
69776;DHT22;57049;51.450;-2.516;2022-10-31T16:07:49;13.83;96.67
69776;DHT22;57049;51.450;-2.516;2022-10-31T16:10:23;13.81;96.75
69776;DHT22;57049;51.450;-2.516;2022-10-31T16:12:50;13.82;96.22
69776;DHT22;57049;51.450;-2.516;2022-10-31T16:15:18;13.78;96.66
69776;DHT22;57049;51.450;-2.516;2022-10-31T16:17:46;13.72;97.13
69776;DHT22;57049;51.450;-2.516;2022-10-31T16:20:22;13.77;96.50
69776;DHT22;57049;51.450;-2.516;2022-10-31T16:22:49;13.72;96.83
69776;DHT22;57049;51.450;-2.516;2022-10-31T16:25:22;13.74;97.15
69776;DHT22;57049;51.450;-2.516;2022-10-31T16:27:53;13.75;97.13
69776;DHT22;57049;51.450;-2.516;2022-10-31T16:32:58;13.61;97.20
69776;DHT22;57049;51.450;-2.516;2022-10-31T16:35:33;13.67;97.37
69776;DHT22;57049;51.450;-2.516;2022-10-31T16:37:59;13.67;97.25
69776;DHT22;57049;51.450;-2.516;2022-10-31T16:40:25;13.61;97.15
69776;DHT22;57049;51.450;-2.516;2022-10-31T16:42:51;13.62;97.38
69776;DHT22;57049;51.450;-2.516;2022-10-31T16:45:28;13.58;97.30
69776;DHT22;57049;51.450;-2.516;2022-10-31T16:48:04;13.57;97.55
69776;DHT22;57049;51.450;-2.516;2022-10-31T16:50:29;13.60;97.44
69776;DHT22;57049;51.450;-2.516;2022-10-31T16:52:55;13.62;97.21
69776;DHT22;57049;51.450;-2.516;2022-10-31T16:55:20;13.58;97.49
69776;DHT22;57049;51.450;-2.516;2022-10-31T16:57:48;13.60;97.51
69776;DHT22;57049;51.450;-2.516;2022-10-31T17:00:18;13.58;97.48
69776;DHT22;57049;51.450;-2.516;2022-10-31T17:02:45;13.58;97.60
69776;DHT22;57049;51.450;-2.516;2022-10-31T17:05:12;13.55;97.65
69776;DHT22;57049;51.450;-2.516;2022-10-31T17:07:38;13.58;97.39
69776;DHT22;57049;51.450;-2.516;2022-10-31T17:10:04;13.60;97.22
69776;DHT22;57049;51.450;-2.516;2022-10-31T17:12:30;13.58;97.59
69776;DHT22;57049;51.450;-2.516;2022-10-31T17:14:56;13.61;97.53
69776;DHT22;57049;51.450;-2.516;2022-10-31T17:17:21;13.60;97.38
69776;DHT22;57049;51.450;-2.516;2022-10-31T17:19:47;13.62;97.25
69776;DHT22;57049;51.450;-2.516;2022-10-31T17:22:13;13.55;97.79
69776;DHT22;57049;51.450;-2.516;2022-10-31T17:24:39;13.55;97.96
69776;DHT22;57049;51.450;-2.516;2022-10-31T17:27:05;13.51;97.95
69776;DHT22;57049;51.450;-2.516;2022-10-31T17:29:31;13.50;98.47
69776;DHT22;57049;51.450;-2.516;2022-10-31T17:31:57;13.48;98.68